< < Back
Terminal Aerodrome Forecast


Current Version              Previous Versions:   1  2  3  4  5  6  7  8  9  

Terminal Aerodrome Forecast

486
FTUS42 KJAX 281720
TAFJAX
TAF
KJAX 281720Z 2818/2918 07012G18KT P6SM VCSH SCT025 BKN040
     FM290000 04004KT P6SM FEW015 SCT030
     FM291400 07012G18KT P6SM VCSH SCT020 BKN035=

Latest METAR

029
SAUS80 KWBC 290800 CCA
MTRJAX
METAR KJAX 290756Z 36003KT 10SM FEW030 SCT250 24/24 A2998 RMK AO2 SLP152
T02440239


USA.gov is the U.S. government's official web portal to all federal, state and local government web resources and services.